Time;durP1;ratioP1;P1;durP2;ratioP2;P2;SDS_P1;SDS_P2;PMS_P1;PMS_P2;Temp;Humidity;BMP_temperature;BMP_pressure;BME280_temperature;BME280_humidity;BME280_pressure;Samples;Min_cycle;Max_cycle;Signal;HPM_P1;HPM_P2
2023/01/12 00:00:10;;;;;;;7.53;3.17;;;5.50;99.90;;;;;;2069485;28;20033;-75
2023/01/12 00:01:12;;;;;;;5.82;3.10;;;5.50;99.90;;;;;;2073082;28;20030;-76
2023/01/12 00:02:16;;;;;;;6.13;3.08;;;5.50;99.90;;;;;;2079430;28;20036;-76
2023/01/12 00:03:16;;;;;;;7.25;3.40;;;5.50;99.90;;;;;;2079129;28;20033;-76
2023/01/12 00:04:17;;;;;;;8.20;3.35;;;5.50;99.90;;;;;;2078925;28;20036;-75
2023/01/12 00:05:18;;;;;;;8.27;3.30;;;5.50;99.90;;;;;;2079514;28;20229;-76
2023/01/12 00:06:19;;;;;;;7.28;3.45;;;5.50;99.90;;;;;;2064112;28;20033;-75
2023/01/12 00:07:20;;;;;;;7.38;3.20;;;5.50;99.90;;;;;;2069806;28;20077;-75
2023/01/12 00:08:20;;;;;;;7.28;3.35;;;5.40;99.90;;;;;;2082671;28;20033;-76
2023/01/12 00:09:21;;;;;;;7.38;3.20;;;5.40;99.90;;;;;;2081645;28;20021;-75
2023/01/12 00:10:22;;;;;;;7.95;3.60;;;5.50;99.90;;;;;;2079433;28;20488;-76
2023/01/12 00:11:22;;;;;;;8.15;3.55;;;5.50;99.90;;;;;;2079076;28;20558;-76
2023/01/12 00:12:23;;;;;;;8.10;3.72;;;5.50;99.90;;;;;;2078865;28;20048;-76
2023/01/12 00:13:23;;;;;;;6.35;3.38;;;5.50;99.90;;;;;;2078761;28;20322;-76
2023/01/12 00:14:24;;;;;;;7.07;3.40;;;5.50;99.90;;;;;;2089985;28;20546;-76
2023/01/12 00:16:44;;;;;;;6.10;3.10;;;5.50;99.90;;;;;;2080011;28;20124;-75
2023/01/12 00:17:44;;;;;;;6.38;3.20;;;5.50;99.90;;;;;;2083630;28;20029;-75
2023/01/12 00:18:45;;;;;;;7.80;3.10;;;5.50;99.90;;;;;;2079649;28;20035;-75
2023/01/12 00:19:46;;;;;;;7.25;3.30;;;5.50;99.90;;;;;;2081375;28;20033;-76
2023/01/12 00:20:49;;;;;;;6.78;3.20;;;5.50;99.90;;;;;;2082728;28;20388;-76
2023/01/12 00:22:04;;;;;;;6.93;3.33;;;5.50;99.90;;;;;;2079673;28;20021;-76
2023/01/12 00:23:05;;;;;;;6.63;3.50;;;5.40;99.90;;;;;;2070583;28;20040;-77
2023/01/12 00:24:07;;;;;;;6.75;3.30;;;5.40;99.90;;;;;;2071385;28;20034;-76
2023/01/12 00:25:08;;;;;;;5.55;3.35;;;5.40;99.90;;;;;;2081644;28;20090;-76
2023/01/12 00:26:09;;;;;;;8.07;3.78;;;5.40;99.90;;;;;;2070924;28;20183;-76
2023/01/12 00:27:13;;;;;;;11.63;4.03;;;5.30;99.90;;;;;;2062103;28;20034;-76
2023/01/12 00:28:15;;;;;;;10.75;4.47;;;5.40;99.90;;;;;;2070146;28;20026;-76
2023/01/12 00:29:16;;;;;;;9.63;3.95;;;5.40;99.90;;;;;;2070245;28;20331;-76
2023/01/12 00:30:17;;;;;;;8.25;3.60;;;5.40;99.90;;;;;;2081388;28;20514;-76
2023/01/12 00:31:18;;;;;;;8.20;3.60;;;5.50;99.90;;;;;;2079853;28;20306;-76
2023/01/12 00:32:19;;;;;;;9.40;3.30;;;5.50;99.90;;;;;;2078426;28;20615;-76
2023/01/12 00:33:20;;;;;;;9.32;3.60;;;5.50;99.90;;;;;;2081791;28;20745;-75
2023/01/12 00:34:21;;;;;;;8.10;3.53;;;5.50;99.90;;;;;;2080077;28;20025;-76
2023/01/12 00:35:22;;;;;;;7.38;3.13;;;5.50;99.90;;;;;;2080713;28;20029;-76
2023/01/12 00:36:23;;;;;;;6.88;3.20;;;5.50;99.90;;;;;;2078677;28;20128;-75
2023/01/12 00:37:24;;;;;;;5.78;2.95;;;5.50;99.90;;;;;;2078792;28;20043;-75
2023/01/12 00:38:25;;;;;;;7.72;3.33;;;5.50;99.90;;;;;;2077138;28;20080;-76
2023/01/12 00:39:26;;;;;;;7.15;3.05;;;5.50;99.90;;;;;;2068550;28;20022;-78
2023/01/12 00:40:26;;;;;;;7.03;3.05;;;5.50;99.90;;;;;;2063057;28;20054;-75
2023/01/12 00:45:25;;;;;;;6.43;2.30;;;5.70;99.90;;;;;;2071554;28;20025;-78
2023/01/12 00:46:29;;;;;;;7.45;2.40;;;5.90;99.90;;;;;;2081516;28;20029;-79
2023/01/12 00:47:30;;;;;;;8.55;2.47;;;6.00;99.90;;;;;;2073428;28;20045;-79
2023/01/12 00:48:30;;;;;;;9.25;2.30;;;6.00;99.90;;;;;;2079716;28;20574;-78
2023/01/12 00:49:31;;;;;;;6.57;2.00;;;6.10;99.90;;;;;;2079938;28;20516;-78
2023/01/12 00:50:31;;;;;;;8.68;2.10;;;6.20;99.90;;;;;;2079937;28;20032;-78
2023/01/12 00:51:32;;;;;;;8.82;2.30;;;6.30;99.90;;;;;;2080040;28;20029;-78
2023/01/12 00:52:32;;;;;;;8.95;2.33;;;6.30;99.90;;;;;;2080910;28;20040;-78
2023/01/12 00:53:33;;;;;;;6.43;1.88;;;6.40;99.90;;;;;;2076627;28;20159;-77
2023/01/12 00:54:34;;;;;;;6.15;1.83;;;6.40;99.90;;;;;;2076395;28;20030;-77
2023/01/12 00:55:34;;;;;;;8.23;2.20;;;6.40;99.90;;;;;;2081013;28;20029;-77
2023/01/12 00:56:36;;;;;;;9.85;2.55;;;6.60;99.90;;;;;;2072824;28;20138;-78
2023/01/12 00:57:37;;;;;;;10.07;2.17;;;6.60;99.90;;;;;;2073830;28;20450;-77
2023/01/12 00:58:37;;;;;;;8.48;2.17;;;6.60;99.90;;;;;;2076281;28;20029;-77
2023/01/12 00:59:38;;;;;;;6.32;2.17;;;6.60;99.90;;;;;;2079963;28;20036;-77
2023/01/12 01:00:39;;;;;;;6.63;1.98;;;6.60;99.90;;;;;;2079743;28;20041;-77
2023/01/12 01:01:39;;;;;;;4.30;1.90;;;6.60;99.90;;;;;;2080929;28;20276;-78
2023/01/12 01:02:40;;;;;;;5.72;1.83;;;6.60;99.90;;;;;;2078232;28;20044;-77
2023/01/12 01:03:40;;;;;;;6.20;2.08;;;6.50;99.90;;;;;;2078547;28;20029;-77
2023/01/12 01:04:41;;;;;;;4.57;1.80;;;6.50;99.90;;;;;;2078784;28;20014;-76
2023/01/12 01:05:41;;;;;;;4.97;1.80;;;6.40;99.90;;;;;;2081548;28;20083;-78
2023/01/12 01:06:42;;;;;;;4.53;1.80;;;6.30;99.90;;;;;;2079345;28;20495;-76
2023/01/12 01:07:42;;;;;;;5.30;1.92;;;6.30;99.90;;;;;;2079730;28;20049;-78
2023/01/12 01:08:43;;;;;;;5.25;1.80;;;6.30;99.90;;;;;;2079448;28;20041;-77
2023/01/12 01:09:43;;;;;;;3.65;1.55;;;6.20;99.90;;;;;;2081408;28;20380;-77
2023/01/12 01:10:45;;;;;;;4.53;1.98;;;6.20;99.90;;;;;;2078285;28;20033;-77
2023/01/12 01:11:46;;;;;;;4.25;1.65;;;6.10;99.90;;;;;;2077554;28;20033;-77
2023/01/12 01:12:46;;;;;;;3.60;1.90;;;6.10;99.90;;;;;;2075784;28;20583;-77
2023/01/12 01:13:47;;;;;;;3.80;1.52;;;6.10;99.90;;;;;;2081298;28;20033;-78
2023/01/12 01:14:48;;;;;;;5.07;2.00;;;6.00;99.90;;;;;;2079988;28;20415;-78
2023/01/12 01:15:49;;;;;;;4.07;1.80;;;6.00;99.90;;;;;;2078088;28;20095;-78
2023/01/12 01:16:49;;;;;;;4.53;2.03;;;5.90;99.90;;;;;;2082520;28;20108;-77
2023/01/12 01:17:50;;;;;;;5.47;2.30;;;5.90;99.90;;;;;;2080648;28;20029;-77
2023/01/12 01:18:50;;;;;;;6.15;2.60;;;5.90;99.90;;;;;;2078125;28;20784;-78
2023/01/12 01:19:51;;;;;;;8.00;2.60;;;5.90;99.90;;;;;;2078341;28;20036;-77
2023/01/12 01:20:51;;;;;;;8.80;3.90;;;5.90;99.90;;;;;;2078684;28;20029;-78
2023/01/12 01:21:52;;;;;;;8.35;3.95;;;5.90;99.90;;;;;;2081057;28;20256;-77
2023/01/12 01:22:52;;;;;;;10.10;3.63;;;5.90;99.90;;;;;;2081263;28;20524;-77
2023/01/12 01:23:53;;;;;;;8.48;3.20;;;5.90;99.90;;;;;;2079628;28;20044;-78
2023/01/12 01:24:54;;;;;;;8.52;2.42;;;5.90;99.90;;;;;;2079530;28;20624;-78
2023/01/12 01:25:54;;;;;;;7.57;2.22;;;6.00;99.90;;;;;;2079691;28;20044;-77
2023/01/12 01:26:55;;;;;;;6.20;2.10;;;6.10;99.90;;;;;;2080494;28;20107;-78
2023/01/12 01:27:55;;;;;;;7.85;1.90;;;6.20;99.90;;;;;;2069432;28;20076;-78
2023/01/12 01:28:56;;;;;;;6.25;1.98;;;6.20;99.90;;;;;;2069370;28;20361;-78
2023/01/12 01:29:57;;;;;;;9.70;2.13;;;6.30;99.90;;;;;;2078624;28;20029;-76
2023/01/12 01:31:05;;;;;;;5.05;1.92;;;6.30;99.90;;;;;;2081279;28;20113;-78
2023/01/12 01:32:06;;;;;;;7.18;2.20;;;6.30;99.90;;;;;;2077127;28;20045;-78
2023/01/12 01:33:07;;;;;;;5.18;1.88;;;6.20;99.90;;;;;;2080967;28;20083;-77
2023/01/12 01:34:07;;;;;;;5.75;2.00;;;6.30;99.90;;;;;;2079385;28;20117;-78
2023/01/12 01:35:08;;;;;;;7.95;2.10;;;6.40;99.90;;;;;;2081266;28;20017;-78
2023/01/12 01:36:10;;;;;;;5.20;1.90;;;6.40;99.90;;;;;;2073560;28;20033;-78
2023/01/12 01:37:11;;;;;;;8.82;2.10;;;6.40;99.90;;;;;;2080142;28;20045;-77
2023/01/12 01:38:12;;;;;;;6.07;1.85;;;6.50;99.90;;;;;;2085617;28;20040;-78
2023/01/12 01:39:12;;;;;;;6.32;2.00;;;6.50;99.90;;;;;;2078344;28;20029;-77
2023/01/12 01:40:13;;;;;;;8.15;2.03;;;6.50;99.90;;;;;;2078246;28;20021;-76
2023/01/12 01:41:23;;;;;;;5.75;1.90;;;6.60;99.90;;;;;;2080740;28;20500;-78
2023/01/12 01:42:26;;;;;;;7.88;2.10;;;6.70;99.90;;;;;;2075085;28;20120;-77
2023/01/12 01:43:28;;;;;;;5.07;1.80;;;6.70;99.90;;;;;;2078569;28;20030;-77
2023/01/12 01:44:29;;;;;;;7.05;2.20;;;6.70;99.90;;;;;;2070556;28;20322;-73
2023/01/12 01:45:29;;;;;;;8.52;1.90;;;6.80;99.90;;;;;;2080438;28;20064;-77
2023/01/12 01:46:44;;;;;;;9.95;2.40;;;6.80;99.90;;;;;;2079610;28;20124;-77
2023/01/12 01:47:51;;;;;;;5.70;2.00;;;6.90;99.90;;;;;;2071864;28;20029;-77
2023/01/12 01:48:52;;;;;;;5.70;1.90;;;6.90;99.90;;;;;;2082244;28;20033;-77
2023/01/12 01:49:55;;;;;;;5.18;1.80;;;7.00;99.90;;;;;;2078118;28;20508;-76
2023/01/12 01:51:00;;;;;;;6.20;1.77;;;7.00;99.90;;;;;;2079519;28;20028;-75
2023/01/12 01:52:15;;;;;;;10.30;2.17;;;7.10;99.90;;;;;;2079301;28;20090;-76
2023/01/12 01:53:21;;;;;;;8.75;2.17;;;7.20;99.90;;;;;;2078812;28;20025;-76
2023/01/12 01:54:22;;;;;;;7.68;2.00;;;7.20;99.90;;;;;;2080372;28;20120;-76
2023/01/12 01:55:28;;;;;;;7.40;1.88;;;7.20;99.90;;;;;;2073313;28;20068;-76
2023/01/12 01:56:30;;;;;;;8.07;2.13;;;7.20;99.90;;;;;;2073904;28;20488;-76
2023/01/12 01:57:46;;;;;;;6.97;2.13;;;7.10;99.90;;;;;;2063124;28;20113;-77
2023/01/12 01:58:58;;;;;;;6.53;1.98;;;7.20;99.90;;;;;;2073915;28;20073;-77
2023/01/12 02:00:02;;;;;;;10.85;1.92;;;7.20;99.90;;;;;;2075531;28;20078;-76
2023/01/12 02:01:03;;;;;;;7.60;2.08;;;7.20;99.90;;;;;;2080183;28;20025;-77
2023/01/12 02:02:04;;;;;;;7.20;2.00;;;7.20;99.90;;;;;;2078026;28;20362;-77
2023/01/12 02:03:06;;;;;;;6.18;2.20;;;7.20;99.90;;;;;;2069131;28;20602;-77
2023/01/12 02:04:07;;;;;;;6.05;2.17;;;7.20;99.90;;;;;;2067861;28;20025;-77
2023/01/12 02:05:10;;;;;;;7.65;1.85;;;7.20;99.90;;;;;;2062353;28;20504;-77
2023/01/12 02:06:11;;;;;;;6.43;2.08;;;7.10;99.90;;;;;;2062828;28;20108;-77
2023/01/12 02:07:11;;;;;;;4.82;2.00;;;7.20;99.90;;;;;;2071514;28;20025;-77
2023/01/12 02:08:43;;;;;;;8.02;1.98;;;7.10;99.90;;;;;;2075623;28;20032;-76
2023/01/12 02:09:43;;;;;;;6.78;2.10;;;7.20;99.90;;;;;;2076733;28;20467;-77
2023/01/12 02:10:44;;;;;;;7.63;2.10;;;7.10;99.90;;;;;;2080752;28;20180;-77
2023/01/12 02:16:26;;;;;;;10.63;2.28;;;7.20;99.90;;;;;;2036003;29;20043;-78
2023/01/12 02:18:03;;;;;;;6.43;1.90;;;7.20;99.90;;;;;;2042924;28;20030;-77
2023/01/12 02:19:22;;;;;;;10.23;2.28;;;7.30;99.90;;;;;;2039404;29;20046;-78
2023/01/12 02:20:39;;;;;;;8.25;2.10;;;7.30;99.90;;;;;;2034186;28;20036;-77
2023/01/12 02:21:50;;;;;;;7.30;2.10;;;7.30;99.90;;;;;;2053842;28;20048;-78
2023/01/12 02:23:16;;;;;;;6.43;2.10;;;7.30;99.90;;;;;;2077985;28;20021;-78
2023/01/12 02:24:39;;;;;;;6.68;1.90;;;7.30;99.90;;;;;;2075761;28;20280;-78
2023/01/12 02:26:07;;;;;;;7.55;1.88;;;7.20;99.90;;;;;;2076667;28;20480;-77
2023/01/12 02:27:16;;;;;;;6.50;2.15;;;7.20;99.90;;;;;;2074714;28;20026;-77
2023/01/12 02:28:25;;;;;;;6.70;2.00;;;7.10;99.90;;;;;;2070492;28;20095;-76
2023/01/12 02:30:02;;;;;;;6.72;1.95;;;7.10;99.90;;;;;;2071454;28;20029;-76
2023/01/12 02:31:20;;;;;;;7.03;2.20;;;7.10;99.90;;;;;;2068210;28;20041;-77
2023/01/12 02:32:28;;;;;;;9.00;2.30;;;7.00;99.90;;;;;;2069279;28;20040;-76
2023/01/12 02:33:49;;;;;;;7.35;1.98;;;7.00;99.90;;;;;;2076909;28;20547;-77
2023/01/12 02:34:54;;;;;;;6.25;2.00;;;6.90;99.90;;;;;;2078109;28;20415;-77
2023/01/12 02:36:09;;;;;;;6.20;1.70;;;6.90;99.90;;;;;;2077745;28;20456;-76
2023/01/12 02:37:41;;;;;;;7.18;1.98;;;6.90;99.90;;;;;;2077641;28;20602;-77
2023/01/12 02:39:06;;;;;;;6.93;2.20;;;6.90;99.90;;;;;;2076768;28;20041;-77
2023/01/12 02:40:50;;;;;;;6.18;2.10;;;6.90;99.90;;;;;;2079032;28;20033;-77
2023/01/12 02:43:30;;;;;;;8.43;2.10;;;6.90;99.90;;;;;;2077807;28;20076;-77
2023/01/12 02:44:41;;;;;;;7.10;1.90;;;6.90;99.90;;;;;;2067280;28;20041;-77
2023/01/12 02:46:10;;;;;;;5.50;2.00;;;6.90;99.90;;;;;;2068864;28;20061;-78
2023/01/12 02:47:21;;;;;;;7.07;2.13;;;6.90;99.90;;;;;;2080496;28;20726;-77
2023/01/12 02:48:24;;;;;;;6.18;2.00;;;6.80;99.90;;;;;;2077751;28;20033;-77
2023/01/12 02:49:32;;;;;;;6.38;2.00;;;6.80;99.90;;;;;;2077299;28;20728;-77
2023/01/12 02:50:45;;;;;;;7.05;2.25;;;6.80;99.90;;;;;;2077469;28;20025;-77
2023/01/12 02:51:53;;;;;;;9.63;2.50;;;6.80;99.90;;;;;;2076806;28;20096;-76
2023/01/12 02:53:00;;;;;;;8.32;2.13;;;6.80;99.90;;;;;;2077040;28;20105;-76
2023/01/12 02:54:05;;;;;;;8.13;2.03;;;6.70;99.90;;;;;;2077724;28;20641;-76
2023/01/12 02:55:06;;;;;;;8.20;2.15;;;6.70;99.90;;;;;;2077944;28;20033;-75
2023/01/12 02:56:08;;;;;;;9.10;2.33;;;6.70;99.90;;;;;;2077547;28;20037;-74
2023/01/12 02:57:09;;;;;;;9.95;2.40;;;6.70;99.90;;;;;;2080903;28;20041;-77
2023/01/12 02:58:13;;;;;;;7.13;2.30;;;6.80;99.90;;;;;;2074850;28;20038;-78
2023/01/12 02:59:21;;;;;;;6.68;2.00;;;6.80;99.90;;;;;;2078245;28;20135;-78
2023/01/12 03:00:22;;;;;;;9.57;2.33;;;6.90;99.90;;;;;;2076001;28;20059;-77
2023/01/12 03:01:25;;;;;;;7.07;1.95;;;6.90;99.90;;;;;;2079568;28;20404;-77
2023/01/12 03:02:26;;;;;;;6.97;2.10;;;6.80;99.90;;;;;;2078917;28;20095;-77
2023/01/12 03:03:27;;;;;;;8.38;2.22;;;6.80;99.90;;;;;;2079658;28;20040;-78
2023/01/12 03:04:30;;;;;;;7.35;2.00;;;6.80;99.90;;;;;;2077273;28;20159;-77
2023/01/12 03:05:31;;;;;;;8.60;2.53;;;6.70;99.90;;;;;;2077776;28;20033;-79
2023/01/12 03:06:46;;;;;;;8.77;1.80;;;6.70;99.90;;;;;;2077818;28;20032;-76
2023/01/12 03:07:54;;;;;;;9.20;1.80;;;6.70;99.90;;;;;;2077828;28;20028;-78
2023/01/12 03:08:55;;;;;;;7.07;1.98;;;6.60;99.90;;;;;;2077569;28;20128;-77
2023/01/12 03:10:01;;;;;;;6.30;2.00;;;6.60;99.90;;;;;;2080086;28;20029;-79
2023/01/12 03:11:12;;;;;;;8.90;2.20;;;6.60;99.90;;;;;;2072384;28;20064;-78
2023/01/12 03:12:29;;;;;;;7.68;1.92;;;6.70;99.90;;;;;;2072416;28;20034;-78
2023/01/12 03:13:33;;;;;;;9.25;2.00;;;6.70;99.90;;;;;;2065663;28;20054;-77
2023/01/12 03:14:37;;;;;;;7.78;1.90;;;6.70;99.90;;;;;;2072024;28;20046;-77
2023/01/12 03:15:42;;;;;;;11.10;2.45;;;6.70;99.90;;;;;;2071144;28;20022;-78
2023/01/12 03:16:43;;;;;;;9.27;2.00;;;6.70;99.90;;;;;;2071252;28;20014;-79
2023/01/12 03:17:58;;;;;;;9.85;2.08;;;6.80;99.90;;;;;;2077554;28;20036;-78
2023/01/12 03:19:19;;;;;;;7.93;2.10;;;6.80;99.90;;;;;;2076396;28;20029;-77
2023/01/12 03:20:27;;;;;;;8.32;2.05;;;6.80;99.90;;;;;;2075050;28;20522;-78
2023/01/12 03:21:34;;;;;;;5.20;1.95;;;6.80;99.90;;;;;;2068569;28;20048;-77
2023/01/12 03:22:36;;;;;;;7.82;2.15;;;6.80;99.90;;;;;;2069988;28;20065;-77
2023/01/12 03:23:51;;;;;;;11.52;2.10;;;6.70;99.90;;;;;;2077197;28;20480;-76
2023/01/12 03:24:57;;;;;;;8.15;2.10;;;6.70;99.90;;;;;;2071741;28;20064;-77
2023/01/12 03:25:59;;;;;;;7.25;2.00;;;6.70;99.90;;;;;;2077828;28;20041;-77
2023/01/12 03:27:11;;;;;;;6.45;2.00;;;6.70;99.90;;;;;;2073321;28;20057;-76
2023/01/12 03:28:16;;;;;;;4.88;2.00;;;6.70;99.90;;;;;;2076458;28;20030;-78
2023/01/12 03:29:35;;;;;;;7.53;2.13;;;6.70;99.90;;;;;;2079145;28;20574;-75
2023/01/12 03:30:39;;;;;;;9.25;1.80;;;6.60;99.90;;;;;;2072652;28;20028;-77
2023/01/12 03:31:41;;;;;;;5.55;2.00;;;6.60;99.90;;;;;;2074588;28;20025;-78
2023/01/12 03:32:42;;;;;;;4.10;1.63;;;6.50;99.90;;;;;;2071838;28;20558;-76
2023/01/12 03:33:44;;;;;;;5.47;1.58;;;6.50;99.90;;;;;;2072701;28;20033;-77
2023/01/12 03:34:45;;;;;;;3.60;1.63;;;6.40;99.90;;;;;;2080398;28;20021;-77
2023/01/12 03:36:18;;;;;;;4.70;1.85;;;6.40;99.90;;;;;;2072510;28;20067;-78
2023/01/12 03:37:31;;;;;;;7.38;2.03;;;6.40;99.90;;;;;;2079022;28;20029;-78
2023/01/12 03:38:44;;;;;;;9.82;2.30;;;6.40;99.90;;;;;;2074507;28;20073;-77
2023/01/12 03:40:01;;;;;;;6.07;1.88;;;6.40;99.90;;;;;;2076953;28;20033;-78
2023/01/12 03:41:10;;;;;;;9.32;2.25;;;6.40;99.90;;;;;;2076722;28;20059;-79
2023/01/12 03:42:19;;;;;;;7.15;1.98;;;6.50;99.90;;;;;;2075421;28;20021;-77
2023/01/12 03:43:28;;;;;;;8.15;2.20;;;6.50;99.90;;;;;;2075287;28;20148;-74
2023/01/12 03:44:41;;;;;;;8.70;2.17;;;6.40;99.90;;;;;;2075376;28;20038;-78
2023/01/12 03:45:57;;;;;;;9.57;2.38;;;6.40;99.90;;;;;;2080090;28;20309;-79
2023/01/12 03:47:03;;;;;;;9.48;2.20;;;6.40;99.90;;;;;;2079734;28;20030;-75
2023/01/12 03:48:37;;;;;;;7.65;2.28;;;6.50;99.90;;;;;;2079253;28;20043;-83
2023/01/12 03:49:44;;;;;;;7.82;2.30;;;6.50;99.90;;;;;;2077720;28;20111;-72
2023/01/12 03:50:54;;;;;;;8.52;2.45;;;6.50;99.90;;;;;;2082591;28;20040;-83
2023/01/12 03:51:58;;;;;;;6.65;2.35;;;6.50;99.90;;;;;;2073483;28;20117;-85
2023/01/12 03:53:01;;;;;;;11.55;2.88;;;6.50;99.90;;;;;;2072468;28;20045;-83
2023/01/12 03:54:04;;;;;;;8.68;2.30;;;6.50;99.90;;;;;;2072728;28;20033;-83
2023/01/12 03:55:07;;;;;;;8.80;2.30;;;6.50;99.90;;;;;;2077760;28;20037;-82
2023/01/12 03:56:10;;;;;;;6.38;2.10;;;6.50;99.90;;;;;;2072444;28;20144;-84
2023/01/12 03:57:12;;;;;;;10.05;2.15;;;6.60;99.90;;;;;;2082275;28;20512;-85
2023/01/12 03:58:12;;;;;;;7.47;2.17;;;6.60;99.90;;;;;;2085296;28;20036;-86
2023/01/12 03:59:13;;;;;;;8.05;2.42;;;6.70;99.90;;;;;;2068494;28;20026;-84
2023/01/12 04:00:16;;;;;;;11.45;2.28;;;6.70;99.90;;;;;;2065813;28;20186;-83
2023/01/12 04:01:16;;;;;;;6.80;1.90;;;6.70;99.90;;;;;;2067890;28;20116;-83
2023/01/12 04:02:17;;;;;;;7.55;2.15;;;6.80;99.90;;;;;;2071201;28;20495;-83
2023/01/12 04:03:18;;;;;;;6.95;1.95;;;6.80;99.90;;;;;;2074007;28;20029;-83
2023/01/12 04:04:19;;;;;;;8.35;2.28;;;6.80;99.90;;;;;;2071603;28;20040;-86
2023/01/12 04:05:19;;;;;;;8.70;2.30;;;6.80;99.90;;;;;;2073158;28;20029;-84
2023/01/12 04:06:20;;;;;;;6.00;1.95;;;6.80;99.90;;;;;;2080104;28;20513;-83
2023/01/12 04:07:21;;;;;;;3.75;1.63;;;6.80;99.90;;;;;;2082815;28;20040;-84
2023/01/12 04:08:22;;;;;;;4.88;1.70;;;6.80;99.90;;;;;;2069551;28;20096;-84
2023/01/12 04:09:24;;;;;;;6.13;1.88;;;6.80;99.90;;;;;;2069620;28;20030;-86
2023/01/12 04:10:25;;;;;;;6.32;1.80;;;6.80;99.90;;;;;;2073891;28;20408;-84
2023/01/12 04:12:44;;;;;;;7.80;2.30;;;6.70;99.90;;;;;;2069820;28;20029;-88
2023/01/12 04:13:45;;;;;;;8.35;2.20;;;6.70;99.90;;;;;;2075255;28;20056;-84
2023/01/12 04:14:47;;;;;;;10.48;2.42;;;6.80;99.90;;;;;;2073042;28;20484;-85
2023/01/12 04:15:47;;;;;;;7.70;2.30;;;6.80;99.90;;;;;;2072370;28;20593;-85
2023/01/12 04:16:48;;;;;;;7.93;2.20;;;6.80;99.90;;;;;;2074823;28;20026;-85
2023/01/12 04:17:49;;;;;;;6.53;1.95;;;6.90;99.90;;;;;;2074218;28;20038;-83
2023/01/12 04:18:50;;;;;;;8.60;2.38;;;6.90;99.90;;;;;;2072150;28;20106;-84
2023/01/12 04:19:51;;;;;;;6.75;2.00;;;6.90;99.90;;;;;;2074024;28;20056;-84
2023/01/12 04:20:51;;;;;;;6.97;1.85;;;6.90;99.90;;;;;;2072755;28;20041;-84
2023/01/12 04:23:11;;;;;;;6.30;2.00;;;6.90;99.90;;;;;;2068326;28;20033;-83
2023/01/12 04:24:11;;;;;;;6.78;2.00;;;6.90;99.90;;;;;;2071780;28;20310;-84
2023/01/12 04:25:13;;;;;;;7.63;1.90;;;6.90;99.90;;;;;;2082670;28;20510;-83
2023/01/12 04:26:16;;;;;;;6.57;2.00;;;7.00;99.90;;;;;;2068239;28;20154;-85
2023/01/12 04:27:17;;;;;;;7.00;2.25;;;6.90;99.90;;;;;;2070568;28;20037;-86
2023/01/12 04:28:17;;;;;;;5.40;2.10;;;7.00;99.90;;;;;;2072180;28;20042;-85
2023/01/12 04:29:18;;;;;;;7.00;2.20;;;7.00;99.90;;;;;;2080158;28;20029;-86
2023/01/12 04:30:22;;;;;;;8.82;2.17;;;7.00;99.90;;;;;;2075483;28;20036;-85
2023/01/12 04:31:22;;;;;;;8.23;2.17;;;7.00;99.90;;;;;;2069770;28;20372;-86
2023/01/12 04:32:23;;;;;;;10.23;2.10;;;7.00;99.90;;;;;;2073346;28;20084;-88
2023/01/12 04:33:23;;;;;;;7.22;2.15;;;7.00;99.90;;;;;;2074347;28;20057;-85
2023/01/12 04:34:24;;;;;;;7.03;1.90;;;7.00;99.90;;;;;;2072495;28;20141;-85
2023/01/12 04:35:25;;;;;;;5.97;2.00;;;7.00;99.90;;;;;;2074920;28;20040;-85
2023/01/12 04:36:26;;;;;;;7.60;2.30;;;7.00;99.90;;;;;;2073588;28;20400;-87
2023/01/12 04:37:27;;;;;;;7.15;2.20;;;7.00;99.90;;;;;;2073241;28;20026;-85
2023/01/12 04:38:27;;;;;;;6.78;2.05;;;7.10;99.90;;;;;;2061628;28;20049;-85
2023/01/12 04:39:28;;;;;;;6.78;2.20;;;7.10;99.90;;;;;;2075537;28;20068;-87
2023/01/12 04:40:28;;;;;;;9.48;2.40;;;7.20;99.90;;;;;;2069078;28;20076;-86
2023/01/12 04:41:29;;;;;;;7.40;1.98;;;7.20;99.90;;;;;;2074348;28;20504;-87
2023/01/12 04:43:49;;;;;;;7.35;2.25;;;7.20;99.90;;;;;;2072974;28;20150;-85
2023/01/12 04:44:50;;;;;;;5.50;2.03;;;7.20;99.90;;;;;;2070699;28;20045;-86
2023/01/12 04:45:51;;;;;;;5.40;1.88;;;7.20;99.90;;;;;;2065767;28;20026;-85
2023/01/12 04:46:51;;;;;;;8.82;2.05;;;7.20;99.90;;;;;;2063783;28;20561;-86
2023/01/12 04:47:52;;;;;;;6.38;2.00;;;7.20;99.90;;;;;;2064186;28;20073;-85
2023/01/12 04:48:52;;;;;;;6.50;1.90;;;7.10;99.90;;;;;;2068949;28;20087;-84
2023/01/12 04:49:53;;;;;;;7.85;2.17;;;7.20;99.90;;;;;;2083159;28;20037;-84
2023/01/12 04:50:53;;;;;;;5.57;1.70;;;7.20;99.90;;;;;;2070708;28;20025;-85
2023/01/12 04:51:54;;;;;;;7.57;2.30;;;7.10;99.90;;;;;;2072453;28;20026;-85
2023/01/12 04:52:55;;;;;;;11.38;2.40;;;7.20;99.90;;;;;;2084382;28;20080;-76
2023/01/12 04:53:55;;;;;;;4.88;1.80;;;7.20;99.90;;;;;;2084862;28;20045;-78
2023/01/12 04:54:56;;;;;;;8.13;2.20;;;7.20;99.90;;;;;;2080054;28;20036;-75
2023/01/12 04:55:57;;;;;;;7.40;2.15;;;7.30;99.90;;;;;;2087609;28;20033;-75
2023/01/12 04:56:57;;;;;;;8.93;2.40;;;7.30;99.90;;;;;;2084712;28;20407;-75
2023/01/12 04:57:58;;;;;;;6.93;2.10;;;7.40;99.90;;;;;;2075383;28;20048;-77
2023/01/12 04:58:59;;;;;;;8.52;2.45;;;7.30;99.90;;;;;;2077832;28;20026;-75
2023/01/12 05:00:00;;;;;;;10.35;2.25;;;7.40;99.90;;;;;;2068945;28;20427;-75
2023/01/12 05:01:16;;;;;;;7.63;2.25;;;7.40;99.90;;;;;;2068947;28;20022;-75
2023/01/12 05:02:17;;;;;;;8.85;2.20;;;7.40;99.90;;;;;;2062266;28;20555;-75
2023/01/12 05:03:17;;;;;;;7.30;2.00;;;7.50;99.90;;;;;;2063050;28;20037;-76
2023/01/12 05:04:18;;;;;;;7.38;1.92;;;7.50;99.90;;;;;;2060099;28;20124;-76
2023/01/12 05:05:18;;;;;;;7.13;2.00;;;7.50;99.90;;;;;;2060636;28;20206;-76
2023/01/12 05:06:19;;;;;;;8.93;2.10;;;7.50;99.90;;;;;;2062427;28;20125;-78
2023/01/12 05:07:19;;;;;;;6.75;2.05;;;7.50;99.90;;;;;;2064521;28;20415;-77
2023/01/12 05:10:59;;;;;;;6.72;2.20;;;7.50;99.90;;;;;;2062999;28;20026;-74
2023/01/12 05:12:00;;;;;;;8.63;2.15;;;7.50;99.90;;;;;;2062905;28;20038;-75
2023/01/12 05:13:00;;;;;;;6.38;2.40;;;7.50;99.90;;;;;;2062298;28;20390;-74
2023/01/12 05:14:01;;;;;;;6.93;2.03;;;7.60;99.90;;;;;;2064699;28;20046;-75
2023/01/12 05:15:02;;;;;;;8.98;2.03;;;7.60;99.90;;;;;;2050429;28;20035;-76
2023/01/12 05:16:14;;;;;;;8.38;2.47;;;7.60;99.90;;;;;;2053513;28;20050;-76
2023/01/12 05:17:15;;;;;;;7.72;2.03;;;7.60;99.90;;;;;;2061964;28;20065;-75
2023/01/12 05:18:15;;;;;;;7.30;2.40;;;7.50;99.90;;;;;;2062785;28;20033;-75
2023/01/12 05:19:16;;;;;;;8.63;2.42;;;7.50;99.90;;;;;;2060658;28;20106;-75
2023/01/12 05:20:17;;;;;;;8.23;2.60;;;7.50;99.90;;;;;;2062021;28;20356;-75
2023/01/12 05:21:17;;;;;;;10.02;2.88;;;7.60;99.90;;;;;;2059630;28;20065;-73
2023/01/12 05:22:18;;;;;;;10.93;3.08;;;7.60;99.90;;;;;;2060790;28;20247;-73
2023/01/12 05:23:18;;;;;;;10.95;2.80;;;7.60;99.90;;;;;;2062343;28;20121;-72
2023/01/12 05:24:19;;;;;;;7.88;2.40;;;7.60;99.90;;;;;;2064247;28;20581;-72
2023/01/12 05:25:19;;;;;;;7.85;2.38;;;7.50;99.90;;;;;;2058125;28;20042;-75
2023/01/12 05:26:20;;;;;;;6.25;2.30;;;7.50;99.90;;;;;;2061319;28;20033;-74
2023/01/12 05:27:21;;;;;;;11.38;2.35;;;7.60;99.90;;;;;;2060519;28;20050;-75
2023/01/12 05:28:21;;;;;;;9.75;2.50;;;7.60;99.90;;;;;;2064735;28;20759;-73
2023/01/12 05:29:22;;;;;;;8.50;2.25;;;7.60;99.90;;;;;;2062228;28;20044;-72
2023/01/12 05:30:23;;;;;;;9.18;2.13;;;7.70;99.90;;;;;;2062542;28;20269;-70
2023/01/12 05:31:24;;;;;;;9.98;2.33;;;7.70;99.90;;;;;;2062518;28;20030;-71
2023/01/12 05:32:25;;;;;;;7.95;2.17;;;7.70;99.90;;;;;;2062462;28;20653;-71
2023/01/12 05:33:26;;;;;;;8.32;2.13;;;7.70;99.90;;;;;;2061421;28;20273;-72
2023/01/12 05:34:26;;;;;;;5.32;2.00;;;7.70;99.90;;;;;;2060554;28;20038;-73
2023/01/12 05:35:27;;;;;;;8.80;2.08;;;7.70;99.90;;;;;;2063286;28;20042;-73
2023/01/12 05:36:27;;;;;;;9.85;2.63;;;7.60;99.90;;;;;;2063471;28;20140;-73
2023/01/12 05:37:28;;;;;;;11.80;2.63;;;7.60;99.90;;;;;;2063595;28;20042;-73
2023/01/12 05:38:29;;;;;;;10.60;2.28;;;7.60;99.90;;;;;;2064725;28;20037;-73
2023/01/12 05:39:29;;;;;;;9.15;2.50;;;7.60;99.90;;;;;;2056613;28;20060;-74
2023/01/12 05:40:30;;;;;;;8.85;2.40;;;7.60;99.90;;;;;;2061168;28;20513;-71
2023/01/12 05:41:30;;;;;;;8.30;2.78;;;7.60;99.90;;;;;;2061185;28;20033;-72
2023/01/12 05:43:50;;;;;;;7.78;2.35;;;7.70;99.90;;;;;;2061754;28;20405;-73
2023/01/12 05:44:50;;;;;;;7.88;2.67;;;7.70;99.90;;;;;;2056745;28;20029;-73
2023/01/12 05:45:51;;;;;;;10.02;2.22;;;7.70;99.90;;;;;;2064098;28;20027;-76
2023/01/12 05:46:52;;;;;;;7.65;2.03;;;7.70;99.90;;;;;;2063568;28;20084;-76
2023/01/12 05:47:57;;;;;;;8.88;2.33;;;7.70;99.90;;;;;;2057616;28;20069;-75
2023/01/12 05:48:58;;;;;;;11.43;2.30;;;7.70;99.90;;;;;;2060215;28;20493;-74
2023/01/12 05:49:58;;;;;;;14.52;2.63;;;7.70;99.90;;;;;;2064048;28;20030;-76
2023/01/12 05:51:01;;;;;;;9.73;2.35;;;7.70;99.90;;;;;;2060045;28;20037;-75
2023/01/12 05:52:01;;;;;;;9.18;2.50;;;7.70;99.90;;;;;;2062190;28;20185;-75
2023/01/12 05:53:02;;;;;;;8.75;2.42;;;7.70;99.90;;;;;;2061082;28;20045;-75
2023/01/12 05:54:03;;;;;;;7.25;2.17;;;7.70;99.90;;;;;;2058074;28;20054;-76
2023/01/12 05:55:04;;;;;;;7.57;2.42;;;7.60;99.90;;;;;;2059430;28;20503;-75
2023/01/12 05:56:07;;;;;;;12.95;2.70;;;7.70;99.90;;;;;;2061610;28;20046;-75